Weather observations for the past three days for
Southwest Michigan Regional Airport
Metric (Imperial)
Date Time (edt) Wind (kph) Vis. (km) Weather Sky Cond. Temperature (ºC) Relative Humidity Wind Chill (°C) Heat Index (°C) Pressure Precipitation (cm)
Air Dwpt 6 hour altimeter (cm) sea level (mb) 1 hr 3 hr 6 hr
Max. Min.
03 19:53 SE 15 16.09 Fair CLR 26.1 21.7 27.8 23.3 77% 28 76.02 1012.9
03 18:53 SE 9 16.09 Fair CLR 27.8 21.7 69% 30 76.02 1013.0
03 17:53 E 13 16.09 Fair CLR 26.7 21.7 74% 29 76 1012.8
03 16:53 E 19 16.09 Partly Cloudy SCT075 SCT100 24.4 21.1 82% 25 76.02 1013.1
03 15:53 NW 13 16.09 Thunderstorm in Vicinity FEW055 FEW080 26.7 21.1 71% 28 76.15 1014.6
03 14:53 Vrbl 7 16.09 Fair CLR 24.4 20 77% 25 76.12 1014.3
03 13:53 NW 13 G 41 16.09 A Few Clouds FEW090 25.6 20 32.2 23.9 71% 27 76.2 1015.5
03 12:53 W 24 16.09 Fair CLR 30.6 21.7 59% 34 76.1 1013.8
03 11:53 SW 24 16.09 Fair CLR 31.7 21.7 55% 35 76.05 1013.2
03 10:53 SW 20 16.09 Fair CLR 30.6 21.7 59% 34 76.1 1013.9
03 09:53 SW 19 16.09 Fair CLR 29.4 21.7 63% 32 76.05 1013.4
03 08:53 SW 11 16.09 Fair CLR 26.1 22.2 79% 28 76.07 1013.6
03 07:53 Calm 16.09 Partly Cloudy SCT070 23.9 22.8 27.8 22.8 94% 23 76.07 1013.7
03 06:53 Calm 16.09 Partly Cloudy SCT070 23.9 22.8 94% 23 76.07 1013.4
03 05:53 Calm 16.09 Partly Cloudy SCT100 23.3 22.8 97% 76.05 1013.3
03 04:53 Calm 16.09 Fair CLR 23.9 22.8 94% 23 76.05 1013.1
03 03:53 SW 9 16.09 Overcast OVC120 27.2 23.3 79% 30 76.05 1013.0
03 02:53 SW 9 16.09 Mostly Cloudy BKN120 27.2 23.3 79% 30 76.05 1013.1
03 01:53 SW 15 16.09 Fair CLR 27.8 23.3 31.7 27.8 77% 31 76.05 1013.1
03 00:53 SW 19 16.09 Partly Cloudy SCT100 SCT120 28.9 23.3 72% 33 76.02 1012.8
02 23:53 SW 13 16.09 Mostly Cloudy BKN120 29.4 23.3 70% 34 76 1012.5
02 22:53 SW 17 16.09 Fair CLR 29.4 23.3 70% 34 76 1012.6
02 21:53 SW 13 16.09 Fair CLR 30 23.3 67% 34 75.97 1012.3
02 20:53 SW 7 16.09 Fair CLR 30 23.3 67% 34 75.95 1011.9
02 19:53 SW 11 16.09 Fair CLR 31.7 23.3 35 31.7 61% 37 75.95 1011.8
02 18:53 SW 19 16.09 Fair CLR 33.3 22.8 54% 38 75.95 1011.6
02 17:53 SW 24 G 33 16.09 Fair CLR 34.4 22.2 49% 39 75.95 1011.8
02 16:53 SW 24 G 37 16.09 Fair CLR 35 21.1 44% 39 75.97 1012.0
02 15:53 S 15 16.09 Fair CLR 33.9 21.7 49% 38 76 1012.5
02 14:53 SW 15 16.09 A Few Clouds FEW095 32.8 21.1 50% 36 76.1 1013.7
02 13:53 W 17 16.09 Fair CLR 31.7 20.6 32.8 26.7 52% 34 76.12 1014.2
02 12:53 SW 13 16.09 Fair CLR 31.1 21.7 57% 34 76.15 1014.4
02 11:53 W 13 16.09 Fair CLR 28.9 21.1 63% 31 76.15 1014.5
02 10:53 W 20 16.09 A Few Clouds FEW090 27.8 21.7 69% 30 76.15 1014.6
02 09:53 SW 20 16.09 Partly Cloudy SCT090 28.9 20.6 61% 31 76.12 1014.1
02 08:53 SW 20 G 37 16.09 Fair CLR 28.3 20.6 63% 30 76.12 1014.3
02 07:53 SW 17 16.09 Fair CLR 27.8 20.6 28.3 24.4 65% 30 76.12 1014.1
02 06:53 SW 17 16.09 Fair CLR 27.8 20.6 65% 30 76.1 1014.0
02 05:53 S 9 16.09 Fair CLR 26.1 21.1 74% 28 76.1 1013.9
02 04:53 SW 15 16.09 Fair CLR 27.2 20.6 67% 29 76.1 1013.8
02 03:53 SW 13 16.09 Fair CLR 27.2 21.1 69% 29 76.07 1013.7
02 02:53 SW 17 16.09 Fair CLR 28.3 21.1 65% 31 76.1 1013.9
02 01:53 SW 17 16.09 Fair CLR 28.3 22.2 30.6 27.8 70% 31 76.07 1013.8
02 00:53 SW 19 16.09 A Few Clouds FEW120 28.9 22.2 67% 32 76.1 1013.8
01 23:53 SW 22 G 35 16.09 Overcast OVC110 30 22.8 65% 34 76.1 1013.8
01 22:53 S 7 16.09 Partly Cloudy SCT110 27.8 25 85% 32 76.07 1013.5
01 21:53 S 9 16.09 Fair CLR 28.3 25 82% 33 76.05 1013.2
01 20:53 S 7 16.09 Fair CLR 29.4 24.4 75% 35 76.02 1012.9
01 19:53 S 7 16.09 Mostly Cloudy BKN110 30.6 25 32.8 25 72% 37 76.05 1013.3 0.03
01 18:53 S 9 16.09 Mostly Cloudy BKN110 31.7 25.6 70% 40 76.07 1013.6
01 17:53 SW 7 16.09 Mostly Cloudy BKN110 32.2 23.9 62% 38 76.07 1013.7
01 15:53 SW 15 16.09 Partly Cloudy SCT110 30.6 24.4 70% 36 76.07 1013.7
01 14:53 Calm 11.27 Thunderstorm in Vicinity BKN110 27.2 23.9 82% 30 76.17 1014.9 0.03
01 13:53 SW 7 6.44 Light Rain Fog/Mist FEW042 SCT090 BKN110 25 23.3 28.9 22.2 90% 26 76.17 1015.0 0.13 0.18
01 12:53 W 11 16.09 Mostly Cloudy SCT037 SCT060 BKN090 25.6 22.8 85% 27 76.17 1014.9 0.05
01 11:53 W 17 16.09 Fair CLR 28.3 22.2 70% 31 76.17 1014.8
01 10:53 W 22 G 35 16.09 Fair CLR 27.8 22.2 72% 30 76.15 1014.6
01 09:53 SW 17 16.09 Fair CLR 27.8 22.2 72% 30 76.15 1014.5
01 08:53 SW 9 16.09 Fair CLR 26.1 21.7 77% 28 76.15 1014.6
01 07:53 Calm 16.09 Fair CLR 22.2 20.6 25.6 20.6 91% 76.12 1014.4
01 06:53 SE 6 16.09 Fair CLR 21.1 20 93% 76.07 1013.8
01 05:53 SW 9 16.09 Fair CLR 25 20.6 77% 26 76.07 1013.7
01 04:53 SW 9 16.09 Fair CLR 25 20.6 77% 26 76.05 1013.2
01 03:53 SW 9 16.09 Fair CLR 25 20.6 77% 26 76.05 1013.3
01 02:53 SW 6 16.09 Fair CLR 22.8 20.6 87% 76.05 1013.4
01 01:53 SW 7 16.09 Fair CLR 25 20.6 28.3 25 77% 26 76.05 1013.4
01 00:53 Vrbl 6 16.09 Fair CLR 25 20.6 77% 26 76.05 1013.3
31 23:53 SW 11 16.09 Fair CLR 26.7 20.6 69% 28 76.05 1013.4
31 22:53 SW 17 16.09 Fair CLR 28.3 20.6 63% 30 76.07 1013.6
31 21:53 SW 11 16.09 Fair CLR 27.8 21.1 67% 30 76.07 1013.6
31 20:53 SW 9 16.09 Fair CLR 27.2 21.1 69% 29 76 1012.8
Date Time (edt) Wind (kph) Vis. (km) Weather Sky Cond. Air Dwpt Max. Min. Relative Humidity Wind Chill (°C) Heat Index (°C) altimeter (cm) sea level (mb) 1 hr 3 hr 6 hr
6 hour
Temperature (ºC) Pressure Precipitation (cm)